sensor_id;sensor_type;location;lat;lon;timestamp;pressure;altitude;pressure_sealevel;temperature;humidity
75617;BME280;64200;55.426;37.758;2023-07-29T00:02:25;98301.94;;;17.89;75.05
75617;BME280;64200;55.426;37.758;2023-07-29T00:07:26;98302.72;;;17.89;75.00
75617;BME280;64200;55.426;37.758;2023-07-29T00:12:26;98300.66;;;17.90;75.23
75617;BME280;64200;55.426;37.758;2023-07-29T00:17:27;98295.56;;;17.88;75.18
75617;BME280;64200;55.426;37.758;2023-07-29T00:22:28;98305.44;;;17.82;74.98
75617;BME280;64200;55.426;37.758;2023-07-29T00:27:28;98281.78;;;17.85;75.22
75617;BME280;64200;55.426;37.758;2023-07-29T00:32:31;98285.56;;;17.87;75.11
75617;BME280;64200;55.426;37.758;2023-07-29T00:37:31;98278.97;;;17.85;75.21
75617;BME280;64200;55.426;37.758;2023-07-29T00:42:32;98288.94;;;17.86;75.59
75617;BME280;64200;55.426;37.758;2023-07-29T00:47:33;98282.75;;;17.87;75.42
75617;BME280;64200;55.426;37.758;2023-07-29T00:52:33;98268.63;;;17.87;75.84
75617;BME280;64200;55.426;37.758;2023-07-29T00:57:35;98257.03;;;17.91;75.50
75617;BME280;64200;55.426;37.758;2023-07-29T01:02:35;98270.84;;;17.81;75.50
75617;BME280;64200;55.426;37.758;2023-07-29T01:07:41;98275.16;;;17.82;75.23
75617;BME280;64200;55.426;37.758;2023-07-29T01:12:51;98268.50;;;17.72;75.59
75617;BME280;64200;55.426;37.758;2023-07-29T01:23:35;98246.28;;;17.68;75.44
75617;BME280;64200;55.426;37.758;2023-07-29T01:28:36;98257.00;;;17.70;75.04
75617;BME280;64200;55.426;37.758;2023-07-29T01:33:43;98246.97;;;17.61;75.03
75617;BME280;64200;55.426;37.758;2023-07-29T01:38:47;98250.56;;;17.62;75.14
75617;BME280;64200;55.426;37.758;2023-07-29T01:43:48;98262.59;;;17.62;74.80
75617;BME280;64200;55.426;37.758;2023-07-29T01:48:49;98286.88;;;17.65;74.86
75617;BME280;64200;55.426;37.758;2023-07-29T01:53:50;98299.66;;;17.66;75.00
75617;BME280;64200;55.426;37.758;2023-07-29T01:58:50;98305.44;;;17.61;74.91
75617;BME280;64200;55.426;37.758;2023-07-29T02:03:51;98309.56;;;17.60;74.51
75617;BME280;64200;55.426;37.758;2023-07-29T02:08:55;98306.31;;;17.55;74.47
75617;BME280;64200;55.426;37.758;2023-07-29T02:13:56;98290.50;;;17.52;74.36
75617;BME280;64200;55.426;37.758;2023-07-29T02:18:57;98286.38;;;17.53;74.27
75617;BME280;64200;55.426;37.758;2023-07-29T02:23:57;98268.22;;;17.41;74.24
75617;BME280;64200;55.426;37.758;2023-07-29T02:28:57;98273.91;;;17.49;74.90
75617;BME280;64200;55.426;37.758;2023-07-29T02:33:58;98264.28;;;17.44;75.01
75617;BME280;64200;55.426;37.758;2023-07-29T02:38:59;98270.47;;;17.43;75.15
75617;BME280;64200;55.426;37.758;2023-07-29T02:43:59;98259.34;;;17.37;75.39
75617;BME280;64200;55.426;37.758;2023-07-29T02:49:02;98258.16;;;17.32;75.10
75617;BME280;64200;55.426;37.758;2023-07-29T02:54:03;98259.44;;;17.31;75.50
75617;BME280;64200;55.426;37.758;2023-07-29T02:59:03;98246.66;;;17.30;75.38
75617;BME280;64200;55.426;37.758;2023-07-29T03:04:05;98248.59;;;17.35;75.71
75617;BME280;64200;55.426;37.758;2023-07-29T03:09:05;98240.78;;;17.42;75.65
75617;BME280;64200;55.426;37.758;2023-07-29T03:14:06;98238.31;;;17.38;75.62
75617;BME280;64200;55.426;37.758;2023-07-29T03:19:07;98243.63;;;17.28;75.68
75617;BME280;64200;55.426;37.758;2023-07-29T03:24:07;98240.16;;;17.35;75.66
75617;BME280;64200;55.426;37.758;2023-07-29T03:29:08;98227.34;;;17.34;75.68
75617;BME280;64200;55.426;37.758;2023-07-29T03:34:08;98226.47;;;17.40;75.65
75617;BME280;64200;55.426;37.758;2023-07-29T03:39:11;98221.59;;;17.40;75.50
75617;BME280;64200;55.426;37.758;2023-07-29T03:44:12;98216.50;;;17.38;75.62
75617;BME280;64200;55.426;37.758;2023-07-29T03:49:12;98217.31;;;17.47;75.39
75617;BME280;64200;55.426;37.758;2023-07-29T03:54:13;98198.78;;;17.51;74.84
75617;BME280;64200;55.426;37.758;2023-07-29T03:59:14;98201.44;;;17.57;75.32
75617;BME280;64200;55.426;37.758;2023-07-29T04:04:14;98196.28;;;17.69;75.23
75617;BME280;64200;55.426;37.758;2023-07-29T04:09:15;98193.88;;;17.73;74.68
75617;BME280;64200;55.426;37.758;2023-07-29T04:14:15;98193.88;;;17.73;73.77
75617;BME280;64200;55.426;37.758;2023-07-29T04:19:16;98193.53;;;17.77;74.11
75617;BME280;64200;55.426;37.758;2023-07-29T04:24:16;98192.56;;;17.74;74.79
75617;BME280;64200;55.426;37.758;2023-07-29T04:29:17;98193.66;;;17.71;74.09
75617;BME280;64200;55.426;37.758;2023-07-29T04:34:18;98203.84;;;17.74;74.10
75617;BME280;64200;55.426;37.758;2023-07-29T04:39:19;98197.47;;;17.73;73.62
75617;BME280;64200;55.426;37.758;2023-07-29T04:44:19;98204.59;;;17.74;74.00
75617;BME280;64200;55.426;37.758;2023-07-29T04:49:21;98188.22;;;17.73;73.40
75617;BME280;64200;55.426;37.758;2023-07-29T04:54:22;98185.75;;;17.69;73.28
75617;BME280;64200;55.426;37.758;2023-07-29T04:59:22;98179.91;;;17.67;73.55
75617;BME280;64200;55.426;37.758;2023-07-29T05:04:23;98185.41;;;17.73;73.14
75617;BME280;64200;55.426;37.758;2023-07-29T05:09:24;98184.31;;;17.76;73.21
75617;BME280;64200;55.426;37.758;2023-07-29T05:14:25;98167.66;;;17.86;73.26
75617;BME280;64200;55.426;37.758;2023-07-29T05:19:25;98165.16;;;18.03;72.48
75617;BME280;64200;55.426;37.758;2023-07-29T05:24:26;98163.56;;;18.23;72.33
75617;BME280;64200;55.426;37.758;2023-07-29T05:29:26;98155.38;;;18.41;72.07
75617;BME280;64200;55.426;37.758;2023-07-29T05:34:27;98173.50;;;18.53;71.87
75617;BME280;64200;55.426;37.758;2023-07-29T05:39:27;98195.09;;;18.43;71.20
75617;BME280;64200;55.426;37.758;2023-07-29T05:44:28;98201.66;;;18.38;71.31
75617;BME280;64200;55.426;37.758;2023-07-29T05:49:30;98206.88;;;18.26;70.92
75617;BME280;64200;55.426;37.758;2023-07-29T05:54:31;98210.63;;;18.21;71.27
75617;BME280;64200;55.426;37.758;2023-07-29T05:59:31;98208.72;;;18.23;71.58
75617;BME280;64200;55.426;37.758;2023-07-29T06:04:32;98213.81;;;18.25;71.31
75617;BME280;64200;55.426;37.758;2023-07-29T06:09:32;98235.19;;;18.13;71.24
75617;BME280;64200;55.426;37.758;2023-07-29T06:14:33;98249.41;;;17.99;71.78
75617;BME280;64200;55.426;37.758;2023-07-29T06:19:33;98259.16;;;17.98;72.06
75617;BME280;64200;55.426;37.758;2023-07-29T06:24:34;98248.66;;;17.99;71.99
75617;BME280;64200;55.426;37.758;2023-07-29T06:29:35;98244.25;;;17.90;72.11
75617;BME280;64200;55.426;37.758;2023-07-29T06:34:35;98242.59;;;17.95;72.49
75617;BME280;64200;55.426;37.758;2023-07-29T06:39:36;98235.63;;;17.96;72.08
75617;BME280;64200;55.426;37.758;2023-07-29T06:44:36;98236.59;;;17.98;72.44
75617;BME280;64200;55.426;37.758;2023-07-29T06:49:37;98229.66;;;17.99;72.29
75617;BME280;64200;55.426;37.758;2023-07-29T06:54:37;98233.69;;;18.12;72.18
75617;BME280;64200;55.426;37.758;2023-07-29T06:59:38;98245.94;;;18.14;72.11
75617;BME280;64200;55.426;37.758;2023-07-29T07:04:38;98242.13;;;18.12;71.99
75617;BME280;64200;55.426;37.758;2023-07-29T07:09:39;98236.53;;;18.19;72.29
75617;BME280;64200;55.426;37.758;2023-07-29T07:14:39;98246.19;;;18.24;72.17
75617;BME280;64200;55.426;37.758;2023-07-29T07:19:40;98250.31;;;18.23;71.27
75617;BME280;64200;55.426;37.758;2023-07-29T07:24:40;98243.47;;;18.11;71.73
75617;BME280;64200;55.426;37.758;2023-07-29T07:29:41;98247.03;;;18.11;72.09
75617;BME280;64200;55.426;37.758;2023-07-29T07:34:41;98257.97;;;18.15;72.07
75617;BME280;64200;55.426;37.758;2023-07-29T07:39:42;98262.31;;;18.16;72.20
75617;BME280;64200;55.426;37.758;2023-07-29T07:44:42;98261.41;;;18.21;72.45
75617;BME280;64200;55.426;37.758;2023-07-29T07:49:43;98267.41;;;18.17;72.28
75617;BME280;64200;55.426;37.758;2023-07-29T07:54:44;98266.97;;;18.13;72.60
75617;BME280;64200;55.426;37.758;2023-07-29T07:59:45;98262.66;;;18.12;72.85
75617;BME280;64200;55.426;37.758;2023-07-29T08:04:45;98267.22;;;18.15;72.76
75617;BME280;64200;55.426;37.758;2023-07-29T08:09:46;98270.97;;;18.18;73.00
75617;BME280;64200;55.426;37.758;2023-07-29T08:14:46;98267.41;;;18.17;72.70
75617;BME280;64200;55.426;37.758;2023-07-29T08:19:47;98261.56;;;18.15;72.75
75617;BME280;64200;55.426;37.758;2023-07-29T08:24:47;98264.94;;;18.14;73.25
75617;BME280;64200;55.426;37.758;2023-07-29T08:29:48;98270.16;;;18.10;73.11
75617;BME280;64200;55.426;37.758;2023-07-29T08:34:48;98275.19;;;18.03;73.43
75617;BME280;64200;55.426;37.758;2023-07-29T08:39:51;98274.19;;;17.93;73.48
75617;BME280;64200;55.426;37.758;2023-07-29T08:44:54;98277.06;;;18.01;73.49
75617;BME280;64200;55.426;37.758;2023-07-29T08:49:59;98285.53;;;18.01;73.60
75617;BME280;64200;55.426;37.758;2023-07-29T08:55:01;98255.22;;;17.80;73.69
75617;BME280;64200;55.426;37.758;2023-07-29T09:00:03;98280.06;;;18.03;74.12
75617;BME280;64200;55.426;37.758;2023-07-29T09:05:04;98271.28;;;18.06;73.94
75617;BME280;64200;55.426;37.758;2023-07-29T09:10:08;98269.16;;;17.99;73.66
75617;BME280;64200;55.426;37.758;2023-07-29T09:15:10;98289.66;;;18.21;74.10
75617;BME280;64200;55.426;37.758;2023-07-29T09:20:10;98279.28;;;18.23;74.02
75617;BME280;64200;55.426;37.758;2023-07-29T09:25:12;98282.16;;;18.31;74.09
75617;BME280;64200;55.426;37.758;2023-07-29T09:30:16;98280.53;;;18.36;73.51
75617;BME280;64200;55.426;37.758;2023-07-29T09:35:17;98283.59;;;18.46;73.46
75617;BME280;64200;55.426;37.758;2023-07-29T09:40:23;98284.75;;;18.50;73.14
75617;BME280;64200;55.426;37.758;2023-07-29T09:45:26;98279.50;;;18.54;73.17
75617;BME280;64200;55.426;37.758;2023-07-29T09:50:27;98276.22;;;18.71;72.56
75617;BME280;64200;55.426;37.758;2023-07-29T09:55:28;98276.97;;;18.72;72.43
75617;BME280;64200;55.426;37.758;2023-07-29T10:00:32;98280.97;;;18.84;72.76
75617;BME280;64200;55.426;37.758;2023-07-29T10:05:35;98285.03;;;18.68;72.42
75617;BME280;64200;55.426;37.758;2023-07-29T10:10:36;98282.50;;;18.56;72.55
75617;BME280;64200;55.426;37.758;2023-07-29T10:15:37;98290.09;;;18.33;72.83
75617;BME280;64200;55.426;37.758;2023-07-29T10:20:38;98290.94;;;18.49;73.24
75617;BME280;64200;55.426;37.758;2023-07-29T10:25:45;98296.72;;;18.64;73.06
75617;BME280;64200;55.426;37.758;2023-07-29T10:30:46;98295.47;;;18.81;72.73
75617;BME280;64200;55.426;37.758;2023-07-29T10:35:48;98291.69;;;18.78;72.43
75617;BME280;64200;55.426;37.758;2023-07-29T10:40:55;98291.84;;;18.72;72.21
75617;BME280;64200;55.426;37.758;2023-07-29T10:45:57;98289.72;;;18.65;72.44
75617;BME280;64200;55.426;37.758;2023-07-29T10:56:35;98296.59;;;18.77;72.83
75617;BME280;64200;55.426;37.758;2023-07-29T11:01:38;98300.16;;;18.78;71.84
75617;BME280;64200;55.426;37.758;2023-07-29T11:12:35;98318.88;;;18.89;71.45
75617;BME280;64200;55.426;37.758;2023-07-29T11:17:39;98311.88;;;18.82;70.63
75617;BME280;64200;55.426;37.758;2023-07-29T11:22:40;98313.66;;;18.64;70.89
75617;BME280;64200;55.426;37.758;2023-07-29T11:27:41;98326.16;;;18.48;70.88
75617;BME280;64200;55.426;37.758;2023-07-29T11:32:43;98319.88;;;18.41;71.75
75617;BME280;64200;55.426;37.758;2023-07-29T11:37:46;98331.25;;;18.28;71.64
75617;BME280;64200;55.426;37.758;2023-07-29T11:42:50;98327.41;;;18.18;71.76
75617;BME280;64200;55.426;37.758;2023-07-29T11:47:51;98328.47;;;18.57;72.53
75617;BME280;64200;55.426;37.758;2023-07-29T11:52:52;98345.28;;;18.91;71.33
75617;BME280;64200;55.426;37.758;2023-07-29T11:57:53;98342.19;;;19.10;71.49
75617;BME280;64200;55.426;37.758;2023-07-29T12:02:54;98349.78;;;19.23;70.81
75617;BME280;64200;55.426;37.758;2023-07-29T12:07:55;98341.34;;;19.39;70.38
75617;BME280;64200;55.426;37.758;2023-07-29T12:12:55;98349.50;;;19.42;69.03
75617;BME280;64200;55.426;37.758;2023-07-29T12:17:56;98346.88;;;19.52;69.46
75617;BME280;64200;55.426;37.758;2023-07-29T12:22:59;98343.63;;;19.48;69.05
75617;BME280;64200;55.426;37.758;2023-07-29T12:28:05;98340.47;;;19.59;68.88
75617;BME280;64200;55.426;37.758;2023-07-29T12:33:06;98338.25;;;19.73;68.63
75617;BME280;64200;55.426;37.758;2023-07-29T12:38:07;98330.00;;;19.91;67.61
75617;BME280;64200;55.426;37.758;2023-07-29T12:43:08;98335.28;;;19.79;67.46
75617;BME280;64200;55.426;37.758;2023-07-29T12:48:09;98341.28;;;19.68;67.88
75617;BME280;64200;55.426;37.758;2023-07-29T12:53:10;98339.16;;;19.60;67.84
75617;BME280;64200;55.426;37.758;2023-07-29T12:58:10;98335.53;;;19.44;67.81
75617;BME280;64200;55.426;37.758;2023-07-29T13:03:11;98347.25;;;19.48;67.41
75617;BME280;64200;55.426;37.758;2023-07-29T13:08:11;98343.44;;;19.38;67.49
75617;BME280;64200;55.426;37.758;2023-07-29T13:13:12;98329.44;;;19.25;67.60
75617;BME280;64200;55.426;37.758;2023-07-29T13:18:12;98329.06;;;19.28;67.75
75617;BME280;64200;55.426;37.758;2023-07-29T13:23:15;98304.16;;;19.19;68.24
75617;BME280;64200;55.426;37.758;2023-07-29T13:28:15;98309.66;;;19.25;68.25
75617;BME280;64200;55.426;37.758;2023-07-29T13:33:16;98290.19;;;19.13;68.60
75617;BME280;64200;55.426;37.758;2023-07-29T13:38:17;98300.38;;;19.24;68.08
75617;BME280;64200;55.426;37.758;2023-07-29T13:43:17;98310.81;;;19.37;68.29
75617;BME280;64200;55.426;37.758;2023-07-29T13:48:18;98318.00;;;19.38;67.99
75617;BME280;64200;55.426;37.758;2023-07-29T13:53:20;98322.69;;;19.43;68.31
75617;BME280;64200;55.426;37.758;2023-07-29T13:58:20;98306.16;;;19.63;68.39
75617;BME280;64200;55.426;37.758;2023-07-29T14:03:21;98313.00;;;19.75;67.71
75617;BME280;64200;55.426;37.758;2023-07-29T14:08:21;98300.91;;;19.75;67.68
75617;BME280;64200;55.426;37.758;2023-07-29T14:13:23;98297.53;;;19.76;67.39
75617;BME280;64200;55.426;37.758;2023-07-29T14:18:23;98303.53;;;19.73;67.03
75617;BME280;64200;55.426;37.758;2023-07-29T14:23:24;98299.41;;;19.66;67.45
75617;BME280;64200;55.426;37.758;2023-07-29T14:28:24;98290.34;;;19.75;67.62
75617;BME280;64200;55.426;37.758;2023-07-29T14:33:25;98302.66;;;19.78;67.38
75617;BME280;64200;55.426;37.758;2023-07-29T14:38:26;98304.69;;;19.77;67.08
75617;BME280;64200;55.426;37.758;2023-07-29T14:43:27;98302.66;;;19.86;67.08
75617;BME280;64200;55.426;37.758;2023-07-29T14:48:28;98311.31;;;19.88;66.83
75617;BME280;64200;55.426;37.758;2023-07-29T14:53:29;98306.22;;;19.86;66.36
75617;BME280;64200;55.426;37.758;2023-07-29T14:58:29;98296.63;;;19.89;66.36
75617;BME280;64200;55.426;37.758;2023-07-29T15:03:30;98303.63;;;19.96;65.87
75617;BME280;64200;55.426;37.758;2023-07-29T15:08:31;98304.19;;;20.02;66.00
75617;BME280;64200;55.426;37.758;2023-07-29T15:13:31;98299.81;;;20.09;65.28
75617;BME280;64200;55.426;37.758;2023-07-29T15:18:35;98300.03;;;20.11;64.74
75617;BME280;64200;55.426;37.758;2023-07-29T15:23:35;98313.44;;;20.18;64.40
75617;BME280;64200;55.426;37.758;2023-07-29T15:28:36;98315.69;;;20.12;64.24
75617;BME280;64200;55.426;37.758;2023-07-29T15:33:37;98321.16;;;20.10;63.43
75617;BME280;64200;55.426;37.758;2023-07-29T15:38:37;98323.59;;;20.06;63.72
75617;BME280;64200;55.426;37.758;2023-07-29T15:43:38;98320.41;;;20.02;63.48
75617;BME280;64200;55.426;37.758;2023-07-29T15:48:38;98329.09;;;19.96;63.39
75617;BME280;64200;55.426;37.758;2023-07-29T15:53:45;98327.38;;;19.93;63.64
75617;BME280;64200;55.426;37.758;2023-07-29T15:58:45;98324.53;;;19.85;63.36
75617;BME280;64200;55.426;37.758;2023-07-29T16:03:46;98333.78;;;19.86;63.13
75617;BME280;64200;55.426;37.758;2023-07-29T16:08:47;98326.56;;;19.77;63.27
75617;BME280;64200;55.426;37.758;2023-07-29T16:13:47;98331.25;;;19.66;63.43
75617;BME280;64200;55.426;37.758;2023-07-29T16:18:48;98327.13;;;19.68;63.33
75617;BME280;64200;55.426;37.758;2023-07-29T16:23:49;98324.25;;;19.60;63.15
75617;BME280;64200;55.426;37.758;2023-07-29T16:28:52;98332.88;;;19.46;63.40
75617;BME280;64200;55.426;37.758;2023-07-29T16:33:53;98316.22;;;19.27;63.89
75617;BME280;64200;55.426;37.758;2023-07-29T16:38:53;98315.50;;;19.27;63.87
75617;BME280;64200;55.426;37.758;2023-07-29T16:43:54;98320.00;;;19.22;64.09
75617;BME280;64200;55.426;37.758;2023-07-29T16:48:54;98311.84;;;19.11;64.56
75617;BME280;64200;55.426;37.758;2023-07-29T16:53:55;98315.78;;;19.08;64.61
75617;BME280;64200;55.426;37.758;2023-07-29T16:58:56;98323.81;;;18.96;65.11
75617;BME280;64200;55.426;37.758;2023-07-29T17:03:56;98324.34;;;18.87;65.30
75617;BME280;64200;55.426;37.758;2023-07-29T17:08:57;98329.72;;;18.77;65.48
75617;BME280;64200;55.426;37.758;2023-07-29T17:13:57;98330.97;;;18.68;65.84
75617;BME280;64200;55.426;37.758;2023-07-29T17:18:58;98334.88;;;18.57;65.90
75617;BME280;64200;55.426;37.758;2023-07-29T17:23:58;98331.03;;;18.47;66.61
75617;BME280;64200;55.426;37.758;2023-07-29T17:29:00;98327.41;;;18.39;67.00
75617;BME280;64200;55.426;37.758;2023-07-29T17:34:00;98342.97;;;18.32;67.72
75617;BME280;64200;55.426;37.758;2023-07-29T17:39:01;98348.38;;;18.22;67.74
75617;BME280;64200;55.426;37.758;2023-07-29T17:44:01;98342.44;;;18.13;68.26
75617;BME280;64200;55.426;37.758;2023-07-29T17:49:02;98353.09;;;18.06;68.56
75617;BME280;64200;55.426;37.758;2023-07-29T17:54:02;98354.13;;;17.96;68.47
75617;BME280;64200;55.426;37.758;2023-07-29T17:59:03;98340.16;;;17.90;69.15
75617;BME280;64200;55.426;37.758;2023-07-29T18:04:03;98325.31;;;17.76;69.16
75617;BME280;64200;55.426;37.758;2023-07-29T18:09:04;98336.53;;;17.68;69.38
75617;BME280;64200;55.426;37.758;2023-07-29T18:14:04;98329.84;;;17.58;69.66
75617;BME280;64200;55.426;37.758;2023-07-29T18:19:05;98336.56;;;17.55;70.29
75617;BME280;64200;55.426;37.758;2023-07-29T18:24:05;98329.88;;;17.45;70.43
75617;BME280;64200;55.426;37.758;2023-07-29T18:29:06;98326.88;;;17.43;71.04
75617;BME280;64200;55.426;37.758;2023-07-29T18:34:06;98341.63;;;17.35;70.91
75617;BME280;64200;55.426;37.758;2023-07-29T18:39:08;98347.16;;;17.28;71.07
75617;BME280;64200;55.426;37.758;2023-07-29T18:44:09;98348.78;;;17.23;71.19
75617;BME280;64200;55.426;37.758;2023-07-29T18:49:09;98346.09;;;17.17;71.46
75617;BME280;64200;55.426;37.758;2023-07-29T18:54:10;98353.56;;;17.15;71.48
75617;BME280;64200;55.426;37.758;2023-07-29T18:59:10;98343.63;;;17.00;71.68
75617;BME280;64200;55.426;37.758;2023-07-29T19:04:11;98372.56;;;17.01;71.79
75617;BME280;64200;55.426;37.758;2023-07-29T19:09:13;98379.47;;;16.86;72.13
75617;BME280;64200;55.426;37.758;2023-07-29T19:14:15;98390.06;;;16.80;72.23
75617;BME280;64200;55.426;37.758;2023-07-29T19:19:15;98377.72;;;16.70;72.24
75617;BME280;64200;55.426;37.758;2023-07-29T19:24:16;98365.25;;;16.65;72.63
75617;BME280;64200;55.426;37.758;2023-07-29T19:29:16;98372.19;;;16.64;72.96
75617;BME280;64200;55.426;37.758;2023-07-29T19:34:17;98359.38;;;16.50;72.68
75617;BME280;64200;55.426;37.758;2023-07-29T19:39:18;98364.81;;;16.61;72.63
75617;BME280;64200;55.426;37.758;2023-07-29T19:44:19;98370.22;;;16.59;72.49
75617;BME280;64200;55.426;37.758;2023-07-29T19:49:19;98379.75;;;16.56;72.46
75617;BME280;64200;55.426;37.758;2023-07-29T19:54:20;98365.00;;;16.50;72.48
75617;BME280;64200;55.426;37.758;2023-07-29T19:59:20;98367.16;;;16.44;72.66
75617;BME280;64200;55.426;37.758;2023-07-29T20:04:21;98360.25;;;16.45;72.61
75617;BME280;64200;55.426;37.758;2023-07-29T20:09:22;98340.41;;;16.37;72.91
75617;BME280;64200;55.426;37.758;2023-07-29T20:14:23;98342.28;;;16.35;72.70
75617;BME280;64200;55.426;37.758;2023-07-29T20:19:23;98350.03;;;16.28;72.78
75617;BME280;64200;55.426;37.758;2023-07-29T20:24:24;98344.53;;;16.23;73.00
75617;BME280;64200;55.426;37.758;2023-07-29T20:29:27;98352.50;;;16.19;72.98
75617;BME280;64200;55.426;37.758;2023-07-29T20:34:28;98357.47;;;16.12;72.96
75617;BME280;64200;55.426;37.758;2023-07-29T20:39:30;98355.19;;;16.11;73.25
75617;BME280;64200;55.426;37.758;2023-07-29T20:44:30;98367.28;;;16.06;73.66
75617;BME280;64200;55.426;37.758;2023-07-29T20:49:31;98382.25;;;16.14;73.68
75617;BME280;64200;55.426;37.758;2023-07-29T20:54:32;98383.00;;;16.14;74.06
75617;BME280;64200;55.426;37.758;2023-07-29T20:59:33;98384.00;;;16.17;74.07
75617;BME280;64200;55.426;37.758;2023-07-29T21:04:33;98373.69;;;16.06;73.84
75617;BME280;64200;55.426;37.758;2023-07-29T21:09:34;98379.31;;;16.06;73.94
75617;BME280;64200;55.426;37.758;2023-07-29T21:14:36;98368.44;;;15.97;74.32
75617;BME280;64200;55.426;37.758;2023-07-29T21:19:37;98378.41;;;15.98;73.77
75617;BME280;64200;55.426;37.758;2023-07-29T21:24:37;98376.88;;;15.97;73.97
75617;BME280;64200;55.426;37.758;2023-07-29T21:29:38;98376.13;;;15.96;74.08
75617;BME280;64200;55.426;37.758;2023-07-29T21:34:38;98383.94;;;16.04;74.54
75617;BME280;64200;55.426;37.758;2023-07-29T21:39:39;98380.91;;;16.02;74.20
75617;BME280;64200;55.426;37.758;2023-07-29T21:44:39;98376.78;;;16.03;74.43
75617;BME280;64200;55.426;37.758;2023-07-29T21:49:40;98374.53;;;16.01;74.19
75617;BME280;64200;55.426;37.758;2023-07-29T21:54:40;98373.78;;;16.01;74.36
75617;BME280;64200;55.426;37.758;2023-07-29T21:59:41;98379.03;;;15.91;74.03
75617;BME280;64200;55.426;37.758;2023-07-29T22:04:41;98370.25;;;15.81;74.10
75617;BME280;64200;55.426;37.758;2023-07-29T22:09:42;98367.09;;;15.85;74.13
75617;BME280;64200;55.426;37.758;2023-07-29T22:14:43;98358.00;;;15.78;74.31
75617;BME280;64200;55.426;37.758;2023-07-29T22:19:47;98359.03;;;15.75;74.76
75617;BME280;64200;55.426;37.758;2023-07-29T22:24:47;98353.94;;;15.74;74.76
75617;BME280;64200;55.426;37.758;2023-07-29T22:29:51;98347.03;;;15.75;74.78
75617;BME280;64200;55.426;37.758;2023-07-29T22:34:52;98346.66;;;15.65;74.90
75617;BME280;64200;55.426;37.758;2023-07-29T22:39:52;98334.22;;;15.60;74.87
75617;BME280;64200;55.426;37.758;2023-07-29T22:44:53;98344.69;;;15.60;74.71
75617;BME280;64200;55.426;37.758;2023-07-29T22:49:53;98345.28;;;15.53;74.88
75617;BME280;64200;55.426;37.758;2023-07-29T22:54:54;98350.63;;;15.56;75.28
75617;BME280;64200;55.426;37.758;2023-07-29T22:59:54;98363.41;;;15.57;75.54
75617;BME280;64200;55.426;37.758;2023-07-29T23:04:55;98355.84;;;15.46;75.24
75617;BME280;64200;55.426;37.758;2023-07-29T23:09:56;98360.13;;;15.34;75.51
75617;BME280;64200;55.426;37.758;2023-07-29T23:14:56;98357.91;;;15.27;75.70
75617;BME280;64200;55.426;37.758;2023-07-29T23:19:58;98355.84;;;15.27;76.02
75617;BME280;64200;55.426;37.758;2023-07-29T23:24:58;98356.16;;;15.24;76.32
75617;BME280;64200;55.426;37.758;2023-07-29T23:30:01;98346.22;;;15.23;76.38
75617;BME280;64200;55.426;37.758;2023-07-29T23:35:03;98342.66;;;15.22;76.43
75617;BME280;64200;55.426;37.758;2023-07-29T23:40:05;98337.41;;;15.13;76.18
75617;BME280;64200;55.426;37.758;2023-07-29T23:45:06;98341.78;;;15.08;76.60
75617;BME280;64200;55.426;37.758;2023-07-29T23:50:07;98341.72;;;15.14;76.46
75617;BME280;64200;55.426;37.758;2023-07-29T23:55:08;98336.09;;;15.14;76.23
